Time;durP1;ratioP1;P1;durP2;ratioP2;P2;SDS_P1;SDS_P2;PMS_P1;PMS_P2;Temp;Humidity;BMP_temperature;BMP_pressure;BME280_temperature;BME280_humidity;BME280_pressure;Samples;Min_cycle;Max_cycle;Signal;HPM_P1;HPM_P2
2021/04/19 00:00:23;;;;;;;18.48;12.95;;;8.60;77.60;;;;;;5094181;28;20257;-82
2021/04/19 00:02:50;;;;;;;15.05;11.93;;;8.40;78.20;;;;;;5089231;28;20218;-81
2021/04/19 00:05:19;;;;;;;14.23;12.45;;;8.50;78.30;;;;;;5093040;28;20564;-82
2021/04/19 00:07:46;;;;;;;17.92;12.32;;;8.50;77.90;;;;;;5088432;28;20203;-82
2021/04/19 00:10:15;;;;;;;12.85;11.27;;;8.60;78.20;;;;;;5092899;28;20230;-82
2021/04/19 00:12:42;;;;;;;14.55;11.68;;;8.60;78.30;;;;;;5092934;28;20199;-82
2021/04/19 00:15:09;;;;;;;13.23;11.82;;;8.50;78.40;;;;;;5094510;28;20208;-81
2021/04/19 00:17:36;;;;;;;14.45;12.20;;;8.50;78.20;;;;;;5093085;28;20594;-81
2021/04/19 00:20:04;;;;;;;15.00;13.38;;;8.50;78.20;;;;;;5088773;28;20252;-82
2021/04/19 00:22:31;;;;;;;13.32;11.98;;;8.40;79.00;;;;;;5099037;28;20661;-82
2021/04/19 00:24:58;;;;;;;13.77;12.32;;;8.30;79.50;;;;;;5088050;28;20206;-81
2021/04/19 00:27:24;;;;;;;14.68;11.93;;;8.10;79.50;;;;;;5092312;28;20221;-81
2021/04/19 00:29:50;;;;;;;13.05;11.68;;;8.00;79.90;;;;;;5092004;28;20202;-81
2021/04/19 00:32:17;;;;;;;14.02;12.15;;;8.00;80.50;;;;;;5090091;28;20238;-81
2021/04/19 00:34:43;;;;;;;15.68;12.10;;;8.00;80.80;;;;;;5096033;28;20211;-81
2021/04/19 00:37:10;;;;;;;12.70;11.23;;;7.80;82.00;;;;;;5094828;28;20666;-81
2021/04/19 00:39:37;;;;;;;17.02;13.50;;;7.70;82.00;;;;;;5090106;28;20285;-81
2021/04/19 00:42:04;;;;;;;19.10;11.85;;;7.80;82.60;;;;;;5090814;28;20233;-81
2021/04/19 00:44:31;;;;;;;13.95;12.50;;;7.70;82.80;;;;;;5099344;28;20202;-81
2021/04/19 00:46:57;;;;;;;15.75;13.38;;;7.80;82.10;;;;;;5088523;28;20281;-82
2021/04/19 00:49:24;;;;;;;16.85;12.18;;;7.80;82.20;;;;;;5096966;28;20251;-82
2021/04/19 00:51:52;;;;;;;14.43;12.40;;;7.80;81.80;;;;;;5089144;28;20207;-81
2021/04/19 00:54:19;;;;;;;15.85;12.40;;;7.80;82.20;;;;;;5096865;28;20289;-81
2021/04/19 00:56:47;;;;;;;15.77;12.32;;;7.70;81.40;;;;;;5089824;28;20286;-82
2021/04/19 00:59:14;;;;;;;13.05;11.60;;;7.60;81.70;;;;;;5094214;28;20225;-81
2021/04/19 01:01:40;;;;;;;14.98;13.10;;;7.60;81.80;;;;;;5090933;28;20284;-82
2021/04/19 01:04:08;;;;;;;13.25;11.40;;;7.70;82.00;;;;;;5094061;28;20749;-81
2021/04/19 01:06:35;;;;;;;14.65;12.60;;;7.70;82.40;;;;;;5096713;28;20203;-82
2021/04/19 01:09:03;;;;;;;14.85;12.70;;;7.80;82.50;;;;;;5084706;28;20720;-81
2021/04/19 01:11:32;;;;;;;16.95;13.25;;;7.70;81.90;;;;;;5089215;28;20724;-82
2021/04/19 01:14:00;;;;;;;13.85;11.57;;;7.70;81.90;;;;;;5086179;28;20195;-82
2021/04/19 01:16:30;;;;;;;13.75;11.48;;;7.70;82.10;;;;;;5090939;28;20569;-82
2021/04/19 01:18:58;;;;;;;13.35;11.70;;;7.60;82.20;;;;;;5087873;28;20194;-82
2021/04/19 01:21:26;;;;;;;14.18;12.68;;;7.50;82.20;;;;;;5091145;28;20222;-81
2021/04/19 01:23:55;;;;;;;13.77;12.27;;;7.40;82.70;;;;;;5094727;28;20195;-82
2021/04/19 01:26:22;;;;;;;16.13;12.43;;;7.40;82.80;;;;;;5088790;28;20605;-82
2021/04/19 01:28:51;;;;;;;15.07;11.80;;;7.50;82.90;;;;;;5091190;28;20247;-81
2021/04/19 01:31:18;;;;;;;13.07;11.75;;;7.50;82.90;;;;;;5085489;28;20683;-82
2021/04/19 01:33:47;;;;;;;15.10;12.48;;;7.60;82.90;;;;;;5097486;28;20202;-81
2021/04/19 01:36:14;;;;;;;14.55;13.05;;;7.70;84.00;;;;;;5088584;28;20310;-81
2021/04/19 01:38:42;;;;;;;17.77;12.77;;;7.80;83.00;;;;;;5100145;28;20225;-81
2021/04/19 01:41:09;;;;;;;19.17;14.55;;;7.90;82.60;;;;;;5093069;28;20253;-81
2021/04/19 01:43:37;;;;;;;12.68;11.27;;;7.90;82.50;;;;;;5091259;28;20626;-81
2021/04/19 01:46:05;;;;;;;13.75;12.23;;;8.00;82.60;;;;;;5095503;28;20790;-81
2021/04/19 01:48:32;;;;;;;16.55;13.55;;;8.00;82.00;;;;;;5089140;28;20209;-81
2021/04/19 01:50:59;;;;;;;16.55;13.55;;;7.90;82.10;;;;;;5095352;28;20646;-81
2021/04/19 01:53:27;;;;;;;14.07;12.73;;;7.90;82.30;;;;;;5088987;28;20198;-81
2021/04/19 01:55:55;;;;;;;20.23;11.60;;;7.90;82.40;;;;;;5085757;28;20273;-81
2021/04/19 01:58:26;;;;;;;18.73;14.40;;;7.80;82.40;;;;;;5084454;28;20207;-82
2021/04/19 02:00:58;;;;;;;15.55;13.07;;;7.80;82.50;;;;;;5086539;28;20250;-81
2021/04/19 02:03:50;;;;;;;17.30;13.40;;;7.80;82.70;;;;;;5094654;28;20211;-81
2021/04/19 02:06:28;;;;;;;14.65;12.13;;;7.90;82.60;;;;;;5083817;28;20206;-81
2021/04/19 02:09:00;;;;;;;14.73;11.70;;;8.00;82.00;;;;;;5095787;28;20261;-82
2021/04/19 02:11:38;;;;;;;15.50;13.07;;;8.00;82.10;;;;;;5082775;28;20579;-82
2021/04/19 02:14:10;;;;;;;15.60;12.82;;;8.10;81.80;;;;;;5093028;28;20687;-82
2021/04/19 02:16:45;;;;;;;14.02;12.18;;;8.00;82.50;;;;;;5086145;28;20207;-82
2021/04/19 02:19:19;;;;;;;17.52;13.02;;;8.00;82.10;;;;;;5093736;28;20213;-82
2021/04/19 02:21:49;;;;;;;16.55;11.85;;;8.10;81.90;;;;;;5089681;28;20230;-82
2021/04/19 02:24:20;;;;;;;12.73;11.32;;;8.00;82.10;;;;;;5092128;28;20206;-81
2021/04/19 02:26:53;;;;;;;16.30;11.80;;;8.00;82.00;;;;;;5089090;28;20202;-82
2021/04/19 02:29:26;;;;;;;17.17;14.30;;;8.10;82.30;;;;;;5091442;28;20197;-82
2021/04/19 02:31:57;;;;;;;16.85;12.65;;;8.20;82.20;;;;;;5090148;28;20206;-82
2021/04/19 02:34:27;;;;;;;16.00;12.77;;;8.30;81.80;;;;;;5090400;28;20616;-82
2021/04/19 02:36:54;;;;;;;18.08;14.23;;;8.20;81.20;;;;;;5095148;28;20224;-82
2021/04/19 02:39:24;;;;;;;15.75;14.15;;;8.30;81.20;;;;;;5087569;28;20557;-82
2021/04/19 02:41:53;;;;;;;16.60;12.50;;;8.30;81.00;;;;;;5090370;28;20206;-82
2021/04/19 02:44:21;;;;;;;15.85;14.10;;;8.30;81.10;;;;;;5086536;28;20744;-81
2021/04/19 02:46:51;;;;;;;18.77;13.40;;;8.40;81.10;;;;;;5097138;28;20570;-82
2021/04/19 02:49:20;;;;;;;16.00;12.13;;;8.40;81.00;;;;;;5088556;28;20218;-82
2021/04/19 02:51:47;;;;;;;16.92;13.75;;;8.40;80.90;;;;;;5090340;28;20230;-82
2021/04/19 02:54:17;;;;;;;15.45;13.45;;;8.30;80.60;;;;;;5087690;28;20203;-82
2021/04/19 02:56:44;;;;;;;17.67;14.93;;;8.20;81.20;;;;;;5085751;28;20202;-82
2021/04/19 02:59:13;;;;;;;16.00;14.30;;;7.80;81.10;;;;;;5090082;28;20297;-82
2021/04/19 03:01:42;;;;;;;15.35;12.15;;;7.80;82.70;;;;;;5085526;28;20255;-83
2021/04/19 03:04:15;;;;;;;15.90;13.25;;;7.80;83.40;;;;;;5097472;28;20210;-82
2021/04/19 03:06:45;;;;;;;19.02;13.40;;;7.90;83.30;;;;;;5079546;28;20194;-82
2021/04/19 03:09:15;;;;;;;15.63;12.82;;;8.00;82.90;;;;;;5090017;28;20201;-82
2021/04/19 03:11:46;;;;;;;16.65;13.70;;;8.10;83.30;;;;;;5081738;28;20194;-82
2021/04/19 03:14:15;;;;;;;17.70;14.18;;;8.10;82.80;;;;;;5090260;28;20206;-82
2021/04/19 03:16:47;;;;;;;17.55;13.00;;;8.10;82.70;;;;;;5092300;28;20550;-83
2021/04/19 03:19:17;;;;;;;14.10;12.18;;;8.10;83.10;;;;;;5087782;28;20240;-82
2021/04/19 03:21:44;;;;;;;16.48;13.35;;;8.10;82.90;;;;;;5087834;28;20258;-82
2021/04/19 03:24:12;;;;;;;17.27;13.75;;;8.10;83.00;;;;;;5089168;28;20203;-83
2021/04/19 03:26:39;;;;;;;17.05;13.88;;;8.20;82.90;;;;;;5085368;28;20206;-82
2021/04/19 03:29:07;;;;;;;18.98;14.98;;;8.20;83.30;;;;;;5081671;28;20206;-82
2021/04/19 03:31:39;;;;;;;18.15;14.45;;;8.20;82.70;;;;;;5089730;28;20205;-83
2021/04/19 03:34:10;;;;;;;19.48;14.07;;;8.30;82.80;;;;;;5087195;28;20210;-82
2021/04/19 03:36:39;;;;;;;17.60;14.20;;;8.30;82.80;;;;;;5089743;28;20203;-82
2021/04/19 03:39:07;;;;;;;18.80;16.15;;;8.40;82.80;;;;;;5089038;28;20659;-82
2021/04/19 03:41:39;;;;;;;17.10;14.25;;;8.40;82.70;;;;;;5089432;28;20297;-82
2021/04/19 03:44:09;;;;;;;19.48;14.07;;;8.40;83.10;;;;;;5087922;28;20607;-82
2021/04/19 03:46:39;;;;;;;15.43;13.75;;;8.30;83.70;;;;;;5089863;28;20741;-83
2021/04/19 03:49:09;;;;;;;17.10;14.65;;;8.30;84.50;;;;;;5086383;28;20227;-82
2021/04/19 03:51:37;;;;;;;21.17;15.38;;;8.30;84.40;;;;;;5087415;28;20278;-82
2021/04/19 03:54:05;;;;;;;17.85;14.48;;;8.10;84.20;;;;;;5099040;28;20222;-82
2021/04/19 03:56:34;;;;;;;16.45;14.15;;;8.30;84.20;;;;;;5084055;28;20214;-82
2021/04/19 03:59:04;;;;;;;14.63;13.00;;;8.30;84.00;;;;;;5092201;28;20622;-82
2021/04/19 04:01:32;;;;;;;15.13;13.50;;;8.20;84.60;;;;;;5084807;28;20356;-82
2021/04/19 04:03:59;;;;;;;18.10;14.23;;;8.20;84.70;;;;;;5091460;28;20207;-82
2021/04/19 04:06:27;;;;;;;16.67;14.25;;;8.20;84.60;;;;;;5087150;28;20284;-82
2021/04/19 04:08:54;;;;;;;17.08;14.40;;;8.20;84.80;;;;;;5094331;28;20280;-82
2021/04/19 04:11:21;;;;;;;17.63;14.43;;;8.30;84.80;;;;;;5085308;28;20637;-82
2021/04/19 04:13:48;;;;;;;17.08;13.85;;;8.30;84.70;;;;;;5094883;28;20291;-82
2021/04/19 04:16:14;;;;;;;18.90;16.15;;;8.30;85.10;;;;;;5089318;28;20207;-82
2021/04/19 04:18:40;;;;;;;20.83;16.95;;;8.40;85.40;;;;;;5096234;28;20209;-82
2021/04/19 04:21:08;;;;;;;18.90;15.52;;;8.30;84.90;;;;;;5090966;28;20307;-82
2021/04/19 04:23:35;;;;;;;16.77;14.07;;;8.30;84.80;;;;;;5091147;28;20203;-82
2021/04/19 04:26:03;;;;;;;23.92;16.02;;;8.30;85.70;;;;;;5092783;28;20237;-82
2021/04/19 04:28:30;;;;;;;21.30;16.15;;;8.10;86.80;;;;;;5091080;28;20212;-82
2021/04/19 04:30:56;;;;;;;19.33;15.90;;;8.10;87.00;;;;;;5097610;28;20204;-82
2021/04/19 04:33:23;;;;;;;21.02;15.88;;;8.10;86.70;;;;;;5095704;28;20226;-82
2021/04/19 04:35:49;;;;;;;21.80;16.98;;;8.20;86.50;;;;;;5087620;28;20238;-82
2021/04/19 04:38:16;;;;;;;22.30;17.13;;;8.30;86.50;;;;;;5090524;28;20273;-82
2021/04/19 04:40:43;;;;;;;26.98;19.48;;;8.30;86.40;;;;;;5091927;28;20710;-82
2021/04/19 04:43:13;;;;;;;24.15;18.27;;;8.30;86.20;;;;;;5091414;28;20212;-82
2021/04/19 04:45:41;;;;;;;19.02;15.45;;;8.40;86.10;;;;;;5100546;28;20198;-82
2021/04/19 04:48:12;;;;;;;23.30;16.48;;;8.40;86.00;;;;;;5091042;28;20207;-81
2021/04/19 04:50:43;;;;;;;22.15;16.55;;;8.50;86.00;;;;;;5090318;28;20565;-82
2021/04/19 04:53:16;;;;;;;26.60;17.05;;;8.50;85.10;;;;;;5088724;28;20219;-82
2021/04/19 04:55:46;;;;;;;22.13;16.45;;;8.50;84.50;;;;;;5091111;28;20230;-82
2021/04/19 04:58:14;;;;;;;18.83;15.98;;;8.40;84.40;;;;;;5096044;28;20237;-82
2021/04/19 05:00:41;;;;;;;20.65;16.25;;;8.50;85.00;;;;;;5090061;28;20727;-81
2021/04/19 05:03:10;;;;;;;21.08;15.52;;;8.40;85.80;;;;;;5091377;28;20221;-83
2021/04/19 05:05:37;;;;;;;23.80;16.67;;;8.50;85.90;;;;;;5092228;28;20202;-82
2021/04/19 05:08:04;;;;;;;18.05;15.77;;;8.50;85.00;;;;;;5097250;28;20733;-82
2021/04/19 05:10:30;;;;;;;24.48;17.10;;;8.50;85.00;;;;;;5097439;28;20191;-83
2021/04/19 05:12:58;;;;;;;20.48;15.40;;;8.50;86.00;;;;;;5091979;28;20230;-82
2021/04/19 05:15:24;;;;;;;22.83;16.58;;;8.50;86.10;;;;;;5096950;28;20237;-82
2021/04/19 05:17:50;;;;;;;23.75;17.70;;;8.50;87.00;;;;;;5090521;28;20206;-82
2021/04/19 05:20:17;;;;;;;22.52;16.95;;;8.50;87.10;;;;;;5091975;28;20590;-83
2021/04/19 05:22:44;;;;;;;23.67;17.70;;;8.60;86.70;;;;;;5086327;28;20202;-82
2021/04/19 05:25:12;;;;;;;19.90;15.93;;;8.60;86.50;;;;;;5092054;28;20213;-82
2021/04/19 05:27:39;;;;;;;23.40;19.08;;;8.70;86.70;;;;;;5085827;28;20207;-83
2021/04/19 05:30:08;;;;;;;21.63;18.27;;;8.60;87.20;;;;;;5095399;28;20741;-83
2021/04/19 05:32:36;;;;;;;30.10;17.88;;;8.60;87.20;;;;;;5082852;28;20296;-84
2021/04/19 05:35:03;;;;;;;25.92;18.92;;;8.60;87.20;;;;;;5096217;28;20202;-84
2021/04/19 05:37:30;;;;;;;22.30;17.15;;;8.50;87.40;;;;;;5093244;28;20214;-84
2021/04/19 05:39:57;;;;;;;19.05;16.80;;;8.50;88.00;;;;;;5091822;28;20211;-84
2021/04/19 05:42:24;;;;;;;22.75;18.30;;;8.50;87.70;;;;;;5097208;28;20194;-84
2021/04/19 05:44:50;;;;;;;20.50;16.33;;;8.60;87.60;;;;;;5087285;28;20218;-84
2021/04/19 05:47:19;;;;;;;25.40;18.95;;;8.50;87.40;;;;;;5094123;28;20210;-83
2021/04/19 05:49:46;;;;;;;23.33;17.73;;;8.60;87.60;;;;;;5094808;28;20225;-84
2021/04/19 05:52:12;;;;;;;24.92;19.10;;;8.60;87.50;;;;;;5090749;28;20237;-82
2021/04/19 05:54:42;;;;;;;21.77;17.67;;;8.60;88.00;;;;;;5089684;28;20217;-83
2021/04/19 05:57:35;;;;;;;24.85;18.05;;;8.50;90.00;;;;;;5091040;28;20217;-83
2021/04/19 06:00:06;;;;;;;23.80;18.80;;;8.40;90.90;;;;;;5091321;28;20272;-83
2021/04/19 06:02:47;;;;;;;27.10;18.33;;;8.40;91.10;;;;;;5090892;28;20268;-83
2021/04/19 06:05:19;;;;;;;29.02;20.23;;;8.40;90.70;;;;;;5087388;28;20651;-82
2021/04/19 06:07:50;;;;;;;22.67;18.88;;;8.40;90.60;;;;;;5086753;28;20302;-82
2021/04/19 06:10:22;;;;;;;26.75;18.67;;;8.40;90.60;;;;;;5093710;28;20218;-82
2021/04/19 06:12:50;;;;;;;24.50;19.70;;;8.40;90.60;;;;;;5087743;28;20651;-82
2021/04/19 06:15:18;;;;;;;28.50;19.45;;;8.40;90.60;;;;;;5089428;28;20252;-83
2021/04/19 06:17:48;;;;;;;23.15;17.70;;;8.40;90.40;;;;;;5091478;28;20205;-82
2021/04/19 06:20:17;;;;;;;24.67;19.73;;;8.40;90.40;;;;;;5087210;28;20222;-82
2021/04/19 06:22:44;;;;;;;24.23;18.65;;;8.30;90.50;;;;;;5090791;28;20717;-82
2021/04/19 06:25:14;;;;;;;24.58;19.23;;;8.30;90.70;;;;;;5083165;28;20202;-82
2021/04/19 06:27:41;;;;;;;23.95;19.05;;;8.20;91.80;;;;;;5092999;28;20205;-81
2021/04/19 06:30:20;;;;;;;25.70;18.33;;;8.20;91.90;;;;;;5082972;28;20190;-81
2021/04/19 06:32:54;;;;;;;22.48;17.52;;;8.20;91.60;;;;;;5085370;28;20203;-82
2021/04/19 06:35:21;;;;;;;25.45;19.08;;;8.10;92.30;;;;;;5083322;28;20199;-83
2021/04/19 06:37:54;;;;;;;21.02;17.30;;;8.20;92.10;;;;;;5091625;28;20204;-81
2021/04/19 06:40:20;;;;;;;24.13;20.15;;;8.20;91.90;;;;;;5093099;28;20230;-83
2021/04/19 06:42:48;;;;;;;18.50;16.60;;;8.30;91.80;;;;;;5090928;28;20206;-82
2021/04/19 06:45:16;;;;;;;23.33;18.63;;;8.30;91.70;;;;;;5088344;28;20764;-82
2021/04/19 06:47:43;;;;;;;23.73;18.10;;;8.30;92.00;;;;;;5090203;28;20301;-83
2021/04/19 06:50:13;;;;;;;20.27;17.88;;;8.30;92.40;;;;;;5085119;28;20198;-82
2021/04/19 06:52:46;;;;;;;24.60;17.85;;;8.20;92.60;;;;;;5089093;28;20206;-81
2021/04/19 06:55:17;;;;;;;22.88;19.13;;;8.30;92.30;;;;;;5080263;28;20210;-82
2021/04/19 06:57:51;;;;;;;22.85;18.50;;;8.40;92.10;;;;;;5091108;28;20296;-82
2021/04/19 07:00:19;;;;;;;22.35;19.05;;;8.40;91.90;;;;;;5086866;28;20237;-82
2021/04/19 07:02:49;;;;;;;25.10;16.80;;;8.40;91.80;;;;;;5090684;28;20210;-81
2021/04/19 07:05:21;;;;;;;23.35;17.75;;;8.40;91.90;;;;;;5094034;28;20564;-81
2021/04/19 07:07:53;;;;;;;22.35;17.65;;;8.40;91.70;;;;;;5087241;28;20210;-81
2021/04/19 07:10:20;;;;;;;24.27;17.20;;;8.40;91.70;;;;;;5087322;28;20199;-81
2021/04/19 07:12:47;;;;;;;25.63;18.92;;;8.40;91.70;;;;;;5094628;28;20705;-81
2021/04/19 07:15:18;;;;;;;20.95;16.40;;;8.40;91.80;;;;;;5085766;28;20213;-81
2021/04/19 07:17:47;;;;;;;24.10;18.77;;;8.40;92.30;;;;;;5092281;28;20214;-80
2021/04/19 07:20:15;;;;;;;22.48;17.80;;;8.40;92.10;;;;;;5083963;28;20954;-81
2021/04/19 07:22:42;;;;;;;23.35;16.83;;;8.50;92.00;;;;;;5092488;28;20942;-81
2021/04/19 07:25:09;;;;;;;28.52;18.42;;;8.50;91.60;;;;;;5090740;28;20206;-81
2021/04/19 07:27:40;;;;;;;22.23;18.20;;;8.50;91.50;;;;;;5092894;28;20257;-81
2021/04/19 07:30:08;;;;;;;22.92;17.42;;;8.50;92.20;;;;;;5093789;28;20199;-81
2021/04/19 07:32:36;;;;;;;23.10;18.10;;;8.60;92.20;;;;;;5088225;28;20233;-80
2021/04/19 07:35:05;;;;;;;22.88;18.92;;;8.60;92.10;;;;;;5089141;28;20663;-81
2021/04/19 07:37:32;;;;;;;22.67;17.02;;;8.50;91.80;;;;;;5090989;28;20297;-81
2021/04/19 07:40:02;;;;;;;21.98;17.13;;;8.50;91.80;;;;;;5090619;28;20291;-81
2021/04/19 07:42:29;;;;;;;23.25;19.08;;;8.50;92.30;;;;;;5085590;28;20213;-82
2021/04/19 07:44:57;;;;;;;21.52;17.20;;;8.50;92.10;;;;;;5093290;28;20194;-80
2021/04/19 07:47:33;;;;;;;25.13;18.85;;;8.60;92.10;;;;;;5093720;28;20203;-81
2021/04/19 07:50:04;;;;;;;28.55;17.08;;;8.60;92.10;;;;;;5096480;28;20600;-80
2021/04/19 07:52:31;;;;;;;23.27;16.63;;;8.60;92.60;;;;;;5092712;28;20210;-80
2021/04/19 07:55:13;;;;;;;23.10;18.77;;;8.40;93.00;;;;;;5089299;28;20203;-81
2021/04/19 07:57:46;;;;;;;20.67;17.13;;;8.40;92.60;;;;;;5092695;28;20210;-82
2021/04/19 08:00:27;;;;;;;23.02;17.25;;;8.20;92.60;;;;;;5082454;28;20647;-82
2021/04/19 08:03:05;;;;;;;23.80;17.70;;;8.20;93.30;;;;;;5091390;28;20210;-82
2021/04/19 08:05:38;;;;;;;25.10;17.23;;;8.30;93.20;;;;;;5093148;28;20206;-81
2021/04/19 08:08:05;;;;;;;25.45;17.95;;;8.50;93.30;;;;;;5094404;28;20195;-79
2021/04/19 08:10:35;;;;;;;24.52;18.65;;;8.70;93.10;;;;;;5094434;28;21008;-81
2021/04/19 08:13:10;;;;;;;23.02;18.23;;;8.70;93.00;;;;;;5098976;28;20198;-81
2021/04/19 08:15:38;;;;;;;22.15;18.13;;;8.90;93.20;;;;;;5091925;28;20194;-82
2021/04/19 08:18:08;;;;;;;21.35;17.75;;;9.00;92.90;;;;;;5093777;28;20213;-81
2021/04/19 08:20:35;;;;;;;21.88;16.98;;;9.00;92.70;;;;;;5093392;28;20215;-81
2021/04/19 08:23:07;;;;;;;22.33;17.70;;;9.00;92.50;;;;;;5087394;28;20199;-81
2021/04/19 08:25:40;;;;;;;25.92;17.63;;;9.00;92.60;;;;;;5092649;28;20202;-82
2021/04/19 08:28:09;;;;;;;22.08;17.65;;;8.90;92.70;;;;;;5088579;28;20199;-82
2021/04/19 08:30:37;;;;;;;24.58;17.88;;;8.90;92.70;;;;;;5093029;28;20199;-81
2021/04/19 08:33:16;;;;;;;23.13;17.75;;;8.90;92.70;;;;;;5087993;28;20199;-82
2021/04/19 08:35:45;;;;;;;21.90;17.55;;;9.00;92.80;;;;;;5087598;28;20621;-82
2021/04/19 08:38:12;;;;;;;27.20;17.77;;;9.00;92.60;;;;;;5084192;28;20206;-82
2021/04/19 08:40:41;;;;;;;25.55;18.42;;;9.10;92.40;;;;;;5091109;28;20726;-83
2021/04/19 08:43:15;;;;;;;25.50;18.30;;;9.10;92.30;;;;;;5085770;28;20290;-83
2021/04/19 08:45:43;;;;;;;24.65;18.92;;;9.10;92.50;;;;;;5089309;28;20202;-81
2021/04/19 08:48:11;;;;;;;20.50;16.98;;;9.00;92.60;;;;;;5092543;28;20249;-81
2021/04/19 08:50:38;;;;;;;22.98;17.00;;;9.00;92.50;;;;;;5086714;28;20195;-81
2021/04/19 08:53:08;;;;;;;26.67;19.15;;;9.00;93.00;;;;;;5092010;28;20205;-82
2021/04/19 08:55:36;;;;;;;21.60;16.25;;;9.00;93.20;;;;;;5087047;28;20198;-80
2021/04/19 08:58:09;;;;;;;23.80;18.20;;;9.00;92.90;;;;;;5090548;28;20224;-79
2021/04/19 09:00:45;;;;;;;23.75;17.33;;;9.10;93.00;;;;;;5096970;28;20310;-81
2021/04/19 09:03:17;;;;;;;26.83;17.17;;;9.00;92.60;;;;;;5091091;28;20267;-81
2021/04/19 09:05:44;;;;;;;21.48;17.20;;;9.00;93.20;;;;;;5092069;28;20202;-81
2021/04/19 09:08:15;;;;;;;23.23;17.17;;;9.00;93.00;;;;;;5085772;28;20210;-81
2021/04/19 09:10:50;;;;;;;22.48;16.33;;;9.00;92.80;;;;;;5095047;28;20226;-82
2021/04/19 09:13:30;;;;;;;24.52;17.80;;;9.00;92.90;;;;;;5087183;28;20202;-82
2021/04/19 09:16:14;;;;;;;19.65;17.50;;;9.00;93.30;;;;;;5088106;28;20223;-78
2021/04/19 09:18:43;;;;;;;27.08;19.15;;;9.00;93.00;;;;;;5088480;28;20253;-78
2021/04/19 09:21:30;;;;;;;23.85;17.85;;;9.00;93.10;;;;;;5088914;28;20218;-78
2021/04/19 09:23:56;;;;;;;23.98;17.08;;;9.00;93.90;;;;;;5082200;28;20203;-79
2021/04/19 09:26:43;;;;;;;23.95;19.25;;;9.00;93.80;;;;;;5087709;28;20205;-79
2021/04/19 09:29:11;;;;;;;24.00;20.35;;;9.10;93.60;;;;;;5088391;28;20210;-80
2021/04/19 09:32:00;;;;;;;23.92;18.80;;;9.10;93.40;;;;;;5086089;28;20210;-77
2021/04/19 09:34:43;;;;;;;19.60;17.45;;;9.10;93.30;;;;;;5084668;28;20214;-79
2021/04/19 09:37:10;;;;;;;26.27;18.42;;;9.10;93.70;;;;;;5086487;28;20236;-79
2021/04/19 09:39:44;;;;;;;23.20;17.15;;;8.90;94.00;;;;;;5092716;28;20191;-79
2021/04/19 09:42:11;;;;;;;22.45;18.05;;;8.90;94.60;;;;;;5084072;28;20221;-78
2021/04/19 09:44:50;;;;;;;22.08;17.38;;;9.00;94.40;;;;;;5082491;28;20202;-78
2021/04/19 09:47:47;;;;;;;23.00;17.77;;;9.20;94.00;;;;;;5087401;28;20620;-80
2021/04/19 09:50:15;;;;;;;23.13;18.77;;;9.30;93.80;;;;;;5089154;28;20289;-78
2021/04/19 09:52:42;;;;;;;25.88;19.30;;;9.20;93.90;;;;;;5084187;28;20195;-78
2021/04/19 09:55:09;;;;;;;25.23;18.38;;;9.20;94.00;;;;;;5082681;28;20656;-79
2021/04/19 09:57:38;;;;;;;25.08;18.83;;;9.30;93.90;;;;;;5086804;28;20808;-78
2021/04/19 10:00:07;;;;;;;25.77;18.40;;;9.40;93.60;;;;;;5089240;28;20241;-80
2021/04/19 10:02:35;;;;;;;26.00;18.70;;;9.50;93.20;;;;;;5086536;28;20762;-79
2021/04/19 10:05:03;;;;;;;26.30;21.25;;;9.60;93.10;;;;;;5091147;28;20199;-79
2021/04/19 10:07:32;;;;;;;24.85;19.30;;;9.60;93.10;;;;;;5087707;28;20688;-79
2021/04/19 10:10:02;;;;;;;24.20;19.55;;;9.70;93.00;;;;;;5093368;28;20236;-79
2021/04/19 10:12:33;;;;;;;25.17;19.52;;;9.80;92.70;;;;;;5091233;28;20214;-79
2021/04/19 10:15:00;;;;;;;22.17;17.75;;;9.80;92.40;;;;;;5089116;28;20744;-79
2021/04/19 10:17:32;;;;;;;27.35;18.80;;;9.80;92.40;;;;;;5091231;27;20222;-79
2021/04/19 10:20:18;;;;;;;26.33;18.60;;;9.80;92.50;;;;;;5088049;28;20290;-79
2021/04/19 10:22:45;;;;;;;19.80;17.02;;;9.80;92.70;;;;;;5085977;28;20257;-79
2021/04/19 10:25:12;;;;;;;25.58;18.63;;;9.90;92.60;;;;;;5084056;28;20210;-79
2021/04/19 10:27:40;;;;;;;21.60;16.45;;;10.00;91.70;;;;;;5097910;28;20564;-79
2021/04/19 10:30:12;;;;;;;24.63;19.40;;;10.00;91.60;;;;;;5091176;28;20220;-79
2021/04/19 10:32:40;;;;;;;27.00;19.73;;;10.00;92.20;;;;;;5090868;28;20195;-78
2021/04/19 10:35:28;;;;;;;28.27;18.70;;;10.00;92.20;;;;;;5089447;28;20967;-79
2021/04/19 10:37:55;;;;;;;26.73;18.90;;;10.10;92.30;;;;;;5091138;28;20628;-78
2021/04/19 10:40:21;;;;;;;23.52;19.58;;;10.10;92.30;;;;;;5085948;28;20190;-79
2021/04/19 10:42:50;;;;;;;21.10;17.60;;;9.70;92.60;;;;;;5084887;28;20198;-79
2021/04/19 10:45:18;;;;;;;24.70;19.17;;;9.80;93.40;;;;;;5085934;28;20672;-80
2021/04/19 10:47:46;;;;;;;33.20;20.13;;;10.10;92.90;;;;;;5089570;28;20206;-79
2021/04/19 10:50:12;;;;;;;23.45;19.92;;;10.30;92.70;;;;;;5087875;28;20504;-78
2021/04/19 10:52:53;;;;;;;29.40;19.60;;;10.40;92.60;;;;;;5089447;28;20675;-79
2021/04/19 10:55:20;;;;;;;23.93;18.60;;;10.50;92.50;;;;;;5090455;28;20701;-79
2021/04/19 10:57:47;;;;;;;24.97;20.37;;;10.40;92.40;;;;;;5089308;28;20623;-79
2021/04/19 11:00:15;;;;;;;32.00;19.53;;;10.50;92.30;;;;;;5093981;28;20619;-79
2021/04/19 11:02:41;;;;;;;21.07;17.40;;;10.20;92.80;;;;;;5087687;28;20647;-79
2021/04/19 11:05:13;;;;;;;23.67;20.00;;;10.30;93.30;;;;;;5088597;28;20642;-79
2021/04/19 11:07:44;;;;;;;22.03;17.67;;;10.10;93.30;;;;;;5101900;28;21966;-79
2021/04/19 11:10:20;;;;;;;23.33;18.07;;;9.70;92.80;;;;;;5088316;28;20643;-80
2021/04/19 11:12:59;;;;;;;24.08;17.75;;;9.60;94.10;;;;;;5082732;28;20628;-79
2021/04/19 11:15:34;;;;;;;23.30;17.83;;;9.40;93.80;;;;;;5093316;28;20263;-81
2021/04/19 11:18:15;;;;;;;19.17;17.20;;;9.50;94.30;;;;;;5087731;28;20632;-81
2021/04/19 11:20:42;;;;;;;22.87;17.50;;;9.60;94.50;;;;;;5088446;28;20214;-81
2021/04/19 11:23:21;;;;;;;22.23;17.73;;;9.80;94.30;;;;;;5100237;28;20632;-80
2021/04/19 11:25:48;;;;;;;22.80;15.65;;;10.00;93.00;;;;;;5098837;28;20628;-80
2021/04/19 11:28:20;;;;;;;22.42;16.00;;;9.60;92.10;;;;;;5094417;28;20546;-80
2021/04/19 11:30:47;;;;;;;19.33;16.40;;;9.80;93.60;;;;;;5097808;28;20523;-81
2021/04/19 11:33:15;;;;;;;20.83;15.40;;;9.90;93.30;;;;;;5087635;28;21252;-80
2021/04/19 11:35:44;;;;;;;19.43;15.27;;;9.90;93.20;;;;;;5088210;28;20669;-80
2021/04/19 11:38:17;;;;;;;20.30;16.80;;;10.20;92.80;;;;;;5096643;28;20628;-81
2021/04/19 11:40:45;;;;;;;20.27;15.50;;;9.90;92.80;;;;;;5091590;28;20660;-81
2021/04/19 11:43:23;;;;;;;22.17;15.70;;;9.90;92.70;;;;;;5096668;28;20810;-81
2021/04/19 11:45:58;;;;;;;22.93;17.87;;;10.20;92.10;;;;;;5094890;28;20209;-80
2021/04/19 11:48:24;;;;;;;18.23;14.87;;;10.10;91.60;;;;;;5095689;28;20633;-80
2021/04/19 11:50:52;;;;;;;16.30;12.80;;;10.20;91.50;;;;;;5100576;28;20624;-81
2021/04/19 11:53:23;;;;;;;16.43;13.33;;;10.20;91.40;;;;;;5093030;28;20679;-80
2021/04/19 11:55:51;;;;;;;16.70;13.63;;;10.40;91.30;;;;;;5092012;28;21169;-80
2021/04/19 11:58:17;;;;;;;17.23;12.90;;;10.70;91.00;;;;;;5093911;28;20632;-81
2021/04/19 12:00:44;;;;;;;14.83;11.90;;;10.70;89.70;;;;;;5105905;28;20644;-81
2021/04/19 12:03:10;;;;;;;15.30;12.63;;;10.60;89.30;;;;;;5088139;28;21208;-82
2021/04/19 12:05:37;;;;;;;17.30;13.00;;;10.90;89.70;;;;;;5094875;28;20620;-80
2021/04/19 12:08:05;;;;;;;14.20;11.30;;;10.90;87.70;;;;;;5091092;28;20631;-80
2021/04/19 12:10:31;;;;;;;14.70;12.20;;;10.70;88.50;;;;;;5091834;28;20627;-81
2021/04/19 12:12:58;;;;;;;19.23;13.70;;;10.80;89.20;;;;;;5092445;28;20655;-81
2021/04/19 12:15:25;;;;;;;13.47;11.57;;;11.00;88.60;;;;;;5092192;28;20636;-81
2021/04/19 12:17:51;;;;;;;17.43;13.17;;;10.90;86.00;;;;;;5094538;28;20615;-81
2021/04/19 12:20:18;;;;;;;16.17;13.17;;;10.70;88.00;;;;;;5091954;28;21007;-80
2021/04/19 12:22:44;;;;;;;15.13;13.43;;;10.70;86.80;;;;;;5103740;28;20660;-81
2021/04/19 12:25:13;;;;;;;18.27;13.50;;;10.50;86.90;;;;;;5086507;28;21400;-80
2021/04/19 12:27:39;;;;;;;16.27;13.37;;;10.90;89.60;;;;;;5090837;28;20613;-81
2021/04/19 12:30:07;;;;;;;19.10;13.63;;;10.50;87.40;;;;;;5092558;28;21089;-80
2021/04/19 12:32:34;;;;;;;18.73;15.40;;;10.50;88.20;;;;;;5088219;28;20674;-81
2021/04/19 12:35:00;;;;;;;17.60;14.03;;;10.60;89.30;;;;;;5087747;28;20639;-82
2021/04/19 12:37:27;;;;;;;14.70;13.10;;;10.80;89.40;;;;;;5087000;28;20682;-81
2021/04/19 12:39:53;;;;;;;17.57;13.17;;;10.70;87.10;;;;;;5092796;28;20627;-81
2021/04/19 12:42:20;;;;;;;17.97;13.93;;;10.50;87.30;;;;;;5087418;28;21460;-81
2021/04/19 12:44:47;;;;;;;16.80;13.20;;;10.50;88.10;;;;;;5094388;28;20635;-81
2021/04/19 12:47:13;;;;;;;16.83;13.43;;;10.30;85.90;;;;;;5090378;28;20626;-81